sensor_id;sensor_type;location;lat;lon;timestamp;pressure;altitude;pressure_sealevel;temperature;humidity
75359;BME280;64046;51.978;5.934;2023-05-18T00:01:19;102751.19;;;12.43;55.96
75359;BME280;64046;51.978;5.934;2023-05-18T00:03:49;102738.38;;;12.28;55.95
75359;BME280;64046;51.978;5.934;2023-05-18T00:06:25;102745.97;;;12.42;55.95
75359;BME280;64046;51.978;5.934;2023-05-18T00:08:54;102737.44;;;12.31;55.91
75359;BME280;64046;51.978;5.934;2023-05-18T00:11:31;102734.88;;;12.27;56.15
75359;BME280;64046;51.978;5.934;2023-05-18T00:14:09;102745.84;;;12.48;55.89
75359;BME280;64046;51.978;5.934;2023-05-18T00:16:39;102743.50;;;12.34;55.96
75359;BME280;64046;51.978;5.934;2023-05-18T00:19:15;102734.47;;;12.48;55.86
75359;BME280;64046;51.978;5.934;2023-05-18T00:21:58;102748.72;;;12.36;56.22
75359;BME280;64046;51.978;5.934;2023-05-18T00:24:29;102749.66;;;12.33;56.08
75359;BME280;64046;51.978;5.934;2023-05-18T00:26:59;102740.59;;;12.48;55.99
75359;BME280;64046;51.978;5.934;2023-05-18T00:29:33;102742.34;;;12.48;55.98
75359;BME280;64046;51.978;5.934;2023-05-18T00:32:04;102743.50;;;12.34;56.23
75359;BME280;64046;51.978;5.934;2023-05-18T00:34:36;102747.91;;;12.32;56.25
75359;BME280;64046;51.978;5.934;2023-05-18T00:37:06;102741.72;;;12.35;56.32
75359;BME280;64046;51.978;5.934;2023-05-18T00:39:47;102741.44;;;12.49;56.16
75359;BME280;64046;51.978;5.934;2023-05-18T00:42:17;102747.22;;;12.24;56.57
75359;BME280;64046;51.978;5.934;2023-05-18T00:44:49;102746.09;;;12.36;56.61
75359;BME280;64046;51.978;5.934;2023-05-18T00:47:22;102744.28;;;12.38;56.49
75359;BME280;64046;51.978;5.934;2023-05-18T00:49:51;102748.16;;;12.21;56.55
75359;BME280;64046;51.978;5.934;2023-05-18T00:52:24;102754.09;;;12.31;56.52
75359;BME280;64046;51.978;5.934;2023-05-18T00:54:59;102742.03;;;12.21;56.75
75359;BME280;64046;51.978;5.934;2023-05-18T00:57:29;102751.69;;;12.19;56.70
75359;BME280;64046;51.978;5.934;2023-05-18T01:00:04;102739.09;;;12.35;56.55
75359;BME280;64046;51.978;5.934;2023-05-18T01:02:39;102744.59;;;12.24;56.58
75359;BME280;64046;51.978;5.934;2023-05-18T01:05:12;102753.41;;;12.21;56.64
75359;BME280;64046;51.978;5.934;2023-05-18T01:07:45;102752.59;;;12.19;56.85
75359;BME280;64046;51.978;5.934;2023-05-18T01:10:20;102751.53;;;12.28;56.86
75359;BME280;64046;51.978;5.934;2023-05-18T01:12:52;102756.69;;;12.33;56.73
75359;BME280;64046;51.978;5.934;2023-05-18T01:15:31;102756.66;;;12.34;56.57
75359;BME280;64046;51.978;5.934;2023-05-18T01:18:10;102758.50;;;12.29;56.92
75359;BME280;64046;51.978;5.934;2023-05-18T01:20:47;102750.78;;;12.21;57.10
75359;BME280;64046;51.978;5.934;2023-05-18T01:26:24;102765.63;;;12.24;57.04
75359;BME280;64046;51.978;5.934;2023-05-18T01:29:02;102759.63;;;12.17;57.17
75359;BME280;64046;51.978;5.934;2023-05-18T01:31:36;102752.72;;;12.11;57.30
75359;BME280;64046;51.978;5.934;2023-05-18T01:34:05;102761.63;;;12.04;57.38
75359;BME280;64046;51.978;5.934;2023-05-18T01:36:39;102760.47;;;12.19;57.32
75359;BME280;64046;51.978;5.934;2023-05-18T01:39:11;102757.78;;;12.22;56.95
75359;BME280;64046;51.978;5.934;2023-05-18T01:41:51;102758.50;;;12.29;56.65
75359;BME280;64046;51.978;5.934;2023-05-18T01:44:29;102755.09;;;12.25;56.80
75359;BME280;64046;51.978;5.934;2023-05-18T01:47:12;102762.06;;;12.26;56.70
75359;BME280;64046;51.978;5.934;2023-05-18T01:49:49;102762.13;;;12.23;56.82
75359;BME280;64046;51.978;5.934;2023-05-18T01:52:23;102764.81;;;12.20;57.14
75359;BME280;64046;51.978;5.934;2023-05-18T01:55:00;102762.31;;;12.14;57.11
75359;BME280;64046;51.978;5.934;2023-05-18T01:57:36;102764.16;;;12.09;57.32
75359;BME280;64046;51.978;5.934;2023-05-18T02:00:11;102761.69;;;12.01;57.69
75359;BME280;64046;51.978;5.934;2023-05-18T02:02:45;102765.94;;;12.07;57.51
75359;BME280;64046;51.978;5.934;2023-05-18T02:05:17;102767.94;;;11.92;57.77
75359;BME280;64046;51.978;5.934;2023-05-18T02:07:52;102760.69;;;12.07;57.54
75359;BME280;64046;51.978;5.934;2023-05-18T02:10:23;102766.28;;;11.87;58.02
75359;BME280;64046;51.978;5.934;2023-05-18T02:13:01;102751.09;;;12.04;57.71
75359;BME280;64046;51.978;5.934;2023-05-18T02:15:33;102755.88;;;11.82;58.18
75359;BME280;64046;51.978;5.934;2023-05-18T02:18:04;102756.56;;;11.92;58.08
75359;BME280;64046;51.978;5.934;2023-05-18T02:20:37;102753.97;;;11.90;58.08
75359;BME280;64046;51.978;5.934;2023-05-18T02:23:16;102759.38;;;11.83;58.34
75359;BME280;64046;51.978;5.934;2023-05-18T02:25:45;102757.84;;;11.71;58.60
75359;BME280;64046;51.978;5.934;2023-05-18T02:28:24;102749.69;;;11.86;58.48
75359;BME280;64046;51.978;5.934;2023-05-18T02:31:03;102759.25;;;11.89;58.44
75359;BME280;64046;51.978;5.934;2023-05-18T02:33:38;102744.69;;;11.71;58.65
75359;BME280;64046;51.978;5.934;2023-05-18T02:36:12;102752.28;;;11.88;58.25
75359;BME280;64046;51.978;5.934;2023-05-18T02:38:46;102749.94;;;11.71;58.38
75359;BME280;64046;51.978;5.934;2023-05-18T02:41:18;102745.66;;;11.67;58.85
75359;BME280;64046;51.978;5.934;2023-05-18T02:43:51;102749.03;;;11.73;58.75
75359;BME280;64046;51.978;5.934;2023-05-18T02:46:23;102739.41;;;11.72;58.88
75359;BME280;64046;51.978;5.934;2023-05-18T02:48:53;102744.88;;;11.60;58.88
75359;BME280;64046;51.978;5.934;2023-05-18T02:51:28;102738.59;;;11.69;59.09
75359;BME280;64046;51.978;5.934;2023-05-18T02:53:58;102741.56;;;11.49;59.13
75359;BME280;64046;51.978;5.934;2023-05-18T02:56:31;102737.81;;;11.64;59.31
75359;BME280;64046;51.978;5.934;2023-05-18T02:59:12;102743.06;;;11.64;59.30
75359;BME280;64046;51.978;5.934;2023-05-18T03:01:47;102747.38;;;11.66;59.26
75359;BME280;64046;51.978;5.934;2023-05-18T03:04:25;102744.13;;;11.52;59.43
75359;BME280;64046;51.978;5.934;2023-05-18T03:06:59;102735.13;;;11.67;59.17
75359;BME280;64046;51.978;5.934;2023-05-18T03:09:29;102738.75;;;11.61;59.26
75359;BME280;64046;51.978;5.934;2023-05-18T03:12:15;102738.41;;;11.80;58.88
75359;BME280;64046;51.978;5.934;2023-05-18T03:14:48;102741.16;;;11.72;59.05
75359;BME280;64046;51.978;5.934;2023-05-18T03:17:18;102747.63;;;11.54;59.38
75359;BME280;64046;51.978;5.934;2023-05-18T03:19:50;102742.47;;;11.49;59.41
75359;BME280;64046;51.978;5.934;2023-05-18T03:22:21;102747.44;;;11.63;59.52
75359;BME280;64046;51.978;5.934;2023-05-18T03:24:51;102752.84;;;11.55;59.33
75359;BME280;64046;51.978;5.934;2023-05-18T03:27:25;102744.69;;;11.71;59.26
75359;BME280;64046;51.978;5.934;2023-05-18T03:29:58;102753.47;;;11.70;59.27
75359;BME280;64046;51.978;5.934;2023-05-18T03:32:33;102755.41;;;11.58;59.39
75359;BME280;64046;51.978;5.934;2023-05-18T03:35:15;102761.34;;;11.70;59.19
75359;BME280;64046;51.978;5.934;2023-05-18T03:37:47;102752.09;;;11.47;59.60
75359;BME280;64046;51.978;5.934;2023-05-18T03:40:19;102753.66;;;11.57;59.64
75359;BME280;64046;51.978;5.934;2023-05-18T03:42:57;102761.56;;;11.56;59.50
75359;BME280;64046;51.978;5.934;2023-05-18T03:45:32;102755.19;;;11.72;59.30
75359;BME280;64046;51.978;5.934;2023-05-18T03:48:05;102751.75;;;11.67;59.45
75359;BME280;64046;51.978;5.934;2023-05-18T03:50:39;102757.88;;;11.66;59.46
75359;BME280;64046;51.978;5.934;2023-05-18T03:53:11;102757.03;;;11.66;59.40
75359;BME280;64046;51.978;5.934;2023-05-18T03:55:46;102761.72;;;11.48;59.47
75359;BME280;64046;51.978;5.934;2023-05-18T03:58:18;102753.84;;;11.48;59.49
75359;BME280;64046;51.978;5.934;2023-05-18T04:00:53;102759.78;;;11.59;59.62
75359;BME280;64046;51.978;5.934;2023-05-18T04:03:28;102758.91;;;11.57;59.68
75359;BME280;64046;51.978;5.934;2023-05-18T04:06:03;102759.78;;;11.59;59.62
75359;BME280;64046;51.978;5.934;2023-05-18T04:08:36;102755.59;;;11.46;59.56
75359;BME280;64046;51.978;5.934;2023-05-18T04:11:15;102758.13;;;11.54;59.41
75359;BME280;64046;51.978;5.934;2023-05-18T04:13:46;102759.03;;;11.51;59.41
75359;BME280;64046;51.978;5.934;2023-05-18T04:16:18;102765.72;;;11.71;59.27
75359;BME280;64046;51.978;5.934;2023-05-18T04:18:49;102761.38;;;11.68;59.05
75359;BME280;64046;51.978;5.934;2023-05-18T04:21:27;102758.78;;;11.67;58.90
75359;BME280;64046;51.978;5.934;2023-05-18T04:24:01;102768.25;;;11.75;58.53
75359;BME280;64046;51.978;5.934;2023-05-18T04:26:35;102766.31;;;11.85;58.29
75359;BME280;64046;51.978;5.934;2023-05-18T04:29:09;102774.00;;;11.98;58.23
75359;BME280;64046;51.978;5.934;2023-05-18T04:31:49;102776.59;;;12.01;58.07
75359;BME280;64046;51.978;5.934;2023-05-18T04:34:26;102772.31;;;11.95;57.98
75359;BME280;64046;51.978;5.934;2023-05-18T04:36:57;102779.25;;;11.98;57.73
75359;BME280;64046;51.978;5.934;2023-05-18T04:39:32;102782.56;;;12.07;57.65
75359;BME280;64046;51.978;5.934;2023-05-18T04:42:20;102781.22;;;12.32;56.93
75359;BME280;64046;51.978;5.934;2023-05-18T04:44:55;102785.06;;;12.15;56.98
75359;BME280;64046;51.978;5.934;2023-05-18T04:47:29;102785.50;;;12.37;56.44
75359;BME280;64046;51.978;5.934;2023-05-18T04:50:00;102783.81;;;12.33;56.47
75359;BME280;64046;51.978;5.934;2023-05-18T04:52:31;102784.81;;;12.27;56.37
75359;BME280;64046;51.978;5.934;2023-05-18T04:55:04;102789.00;;;12.38;56.04
75359;BME280;64046;51.978;5.934;2023-05-18T04:57:37;102794.28;;;12.36;55.77
75359;BME280;64046;51.978;5.934;2023-05-18T05:00:11;102787.78;;;12.54;55.44
75359;BME280;64046;51.978;5.934;2023-05-18T05:02:46;102789.31;;;12.64;55.02
75359;BME280;64046;51.978;5.934;2023-05-18T05:05:25;102793.16;;;12.50;54.88
75359;BME280;64046;51.978;5.934;2023-05-18T05:07:57;102794.88;;;12.52;54.87
75359;BME280;64046;51.978;5.934;2023-05-18T05:10:35;102806.56;;;12.79;54.46
75359;BME280;64046;51.978;5.934;2023-05-18T05:13:07;102801.47;;;12.70;54.25
75359;BME280;64046;51.978;5.934;2023-05-18T05:15:37;102806.59;;;12.76;53.80
75359;BME280;64046;51.978;5.934;2023-05-18T05:18:14;102800.75;;;13.04;53.35
75359;BME280;64046;51.978;5.934;2023-05-18T05:20:46;102806.91;;;13.03;52.94
75359;BME280;64046;51.978;5.934;2023-05-18T05:23:18;102799.31;;;12.89;52.73
75359;BME280;64046;51.978;5.934;2023-05-18T05:25:48;102804.50;;;12.94;52.49
75359;BME280;64046;51.978;5.934;2023-05-18T05:28:27;102800.56;;;13.12;51.80
75359;BME280;64046;51.978;5.934;2023-05-18T05:30:57;102804.56;;;12.89;52.01
75359;BME280;64046;51.978;5.934;2023-05-18T05:33:32;102800.78;;;13.03;51.92
75359;BME280;64046;51.978;5.934;2023-05-18T05:36:06;102806.16;;;12.96;51.92
75359;BME280;64046;51.978;5.934;2023-05-18T05:38:36;102801.75;;;12.98;51.63
75359;BME280;64046;51.978;5.934;2023-05-18T05:41:09;102806.72;;;13.12;51.54
75359;BME280;64046;51.978;5.934;2023-05-18T05:43:38;102803.41;;;13.03;51.34
75359;BME280;64046;51.978;5.934;2023-05-18T05:46:08;102796.38;;;13.03;51.14
75359;BME280;64046;51.978;5.934;2023-05-18T05:48:44;102803.06;;;13.18;50.90
75359;BME280;64046;51.978;5.934;2023-05-18T05:51:14;102800.63;;;13.09;50.85
75359;BME280;64046;51.978;5.934;2023-05-18T05:53:44;102798.78;;;13.14;50.74
75359;BME280;64046;51.978;5.934;2023-05-18T05:56:22;102804.00;;;13.15;50.59
75359;BME280;64046;51.978;5.934;2023-05-18T05:58:53;102801.38;;;13.15;50.54
75359;BME280;64046;51.978;5.934;2023-05-18T06:01:23;102797.81;;;13.16;50.38
75359;BME280;64046;51.978;5.934;2023-05-18T06:03:56;102801.06;;;13.28;50.09
75359;BME280;64046;51.978;5.934;2023-05-18T06:06:29;102811.84;;;13.17;50.29
75359;BME280;64046;51.978;5.934;2023-05-18T06:09:01;102800.47;;;13.15;50.40
75359;BME280;64046;51.978;5.934;2023-05-18T06:11:30;102802.19;;;13.18;50.17
75359;BME280;64046;51.978;5.934;2023-05-18T06:14:02;102805.53;;;13.24;50.34
75359;BME280;64046;51.978;5.934;2023-05-18T06:16:32;102806.44;;;13.23;50.38
75359;BME280;64046;51.978;5.934;2023-05-18T06:19:06;102813.22;;;13.35;50.21
75359;BME280;64046;51.978;5.934;2023-05-18T06:21:35;102807.41;;;13.19;50.28
75359;BME280;64046;51.978;5.934;2023-05-18T06:24:05;102809.00;;;13.26;50.29
75359;BME280;64046;51.978;5.934;2023-05-18T06:26:44;102812.31;;;13.36;50.23
75359;BME280;64046;51.978;5.934;2023-05-18T06:29:41;102820.22;;;13.36;50.02
75359;BME280;64046;51.978;5.934;2023-05-18T06:32:34;102817.16;;;13.15;50.63
75359;BME280;64046;51.978;5.934;2023-05-18T06:35:08;102814.06;;;13.37;50.44
75359;BME280;64046;51.978;5.934;2023-05-18T06:37:44;102807.94;;;13.33;50.38
75359;BME280;64046;51.978;5.934;2023-05-18T06:40:20;102813.97;;;13.40;50.36
75359;BME280;64046;51.978;5.934;2023-05-18T06:42:53;102812.69;;;13.57;50.03
75359;BME280;64046;51.978;5.934;2023-05-18T06:45:35;102831.41;;;13.46;50.21
75359;BME280;64046;51.978;5.934;2023-05-18T06:48:12;102824.47;;;13.42;50.04
75359;BME280;64046;51.978;5.934;2023-05-18T06:50:45;102835.28;;;13.67;49.86
75359;BME280;64046;51.978;5.934;2023-05-18T06:53:19;102826.06;;;13.83;49.53
75359;BME280;64046;51.978;5.934;2023-05-18T06:55:55;102825.91;;;13.90;49.05
75359;BME280;64046;51.978;5.934;2023-05-18T06:58:25;102833.47;;;14.04;49.14
75359;BME280;64046;51.978;5.934;2023-05-18T07:00:59;102822.41;;;14.22;48.65
75359;BME280;64046;51.978;5.934;2023-05-18T07:03:31;102829.94;;;14.36;48.25
75359;BME280;64046;51.978;5.934;2023-05-18T07:06:06;102836.41;;;14.56;48.01
75359;BME280;64046;51.978;5.934;2023-05-18T07:08:42;102826.75;;;14.56;47.72
75359;BME280;64046;51.978;5.934;2023-05-18T07:11:14;102833.50;;;14.66;47.77
75359;BME280;64046;51.978;5.934;2023-05-18T07:13:50;102831.97;;;14.89;47.42
75359;BME280;64046;51.978;5.934;2023-05-18T07:16:31;102826.19;;;15.06;47.03
75359;BME280;64046;51.978;5.934;2023-05-18T07:19:14;102828.63;;;15.12;46.85
75359;BME280;64046;51.978;5.934;2023-05-18T07:21:49;102831.59;;;15.01;46.82
75359;BME280;64046;51.978;5.934;2023-05-18T07:24:23;102840.66;;;14.93;46.93
75359;BME280;64046;51.978;5.934;2023-05-18T07:27:00;102843.13;;;14.99;46.68
75359;BME280;64046;51.978;5.934;2023-05-18T07:29:36;102839.41;;;15.33;46.29
75359;BME280;64046;51.978;5.934;2023-05-18T07:32:07;102836.53;;;15.40;46.11
75359;BME280;64046;51.978;5.934;2023-05-18T07:34:53;102829.63;;;15.63;45.52
75359;BME280;64046;51.978;5.934;2023-05-18T07:37:30;102837.00;;;15.80;45.41
75359;BME280;64046;51.978;5.934;2023-05-18T07:40:04;102845.00;;;15.79;45.34
75359;BME280;64046;51.978;5.934;2023-05-18T07:42:37;102842.97;;;15.87;45.47
75359;BME280;64046;51.978;5.934;2023-05-18T07:45:10;102840.94;;;15.95;45.23
75359;BME280;64046;51.978;5.934;2023-05-18T07:47:55;102843.09;;;16.09;44.89
75359;BME280;64046;51.978;5.934;2023-05-18T07:50:27;102842.88;;;16.15;44.78
75359;BME280;64046;51.978;5.934;2023-05-18T07:53:00;102846.53;;;16.36;44.47
75359;BME280;64046;51.978;5.934;2023-05-18T07:55:38;102834.69;;;16.47;43.99
75359;BME280;64046;51.978;5.934;2023-05-18T07:58:09;102842.16;;;16.35;44.08
75359;BME280;64046;51.978;5.934;2023-05-18T08:00:41;102844.13;;;16.54;43.44
75359;BME280;64046;51.978;5.934;2023-05-18T08:03:10;102844.75;;;16.60;43.72
75359;BME280;64046;51.978;5.934;2023-05-18T08:05:45;102849.56;;;16.98;43.46
75359;BME280;64046;51.978;5.934;2023-05-18T08:08:21;102858.38;;;17.21;42.54
75359;BME280;64046;51.978;5.934;2023-05-18T08:10:54;102860.28;;;16.95;42.57
75359;BME280;64046;51.978;5.934;2023-05-18T08:13:24;102851.25;;;16.99;42.20
75359;BME280;64046;51.978;5.934;2023-05-18T08:15:59;102855.63;;;17.24;42.49
75359;BME280;64046;51.978;5.934;2023-05-18T08:18:34;102861.03;;;17.21;41.98
75359;BME280;64046;51.978;5.934;2023-05-18T08:21:06;102861.28;;;17.37;41.77
75359;BME280;64046;51.978;5.934;2023-05-18T08:23:50;102855.78;;;17.41;42.03
75359;BME280;64046;51.978;5.934;2023-05-18T08:26:22;102858.50;;;17.40;41.36
75359;BME280;64046;51.978;5.934;2023-05-18T08:28:59;102861.69;;;17.04;41.82
75359;BME280;64046;51.978;5.934;2023-05-18T08:31:36;102861.56;;;17.07;42.16
75359;BME280;64046;51.978;5.934;2023-05-18T08:34:10;102864.53;;;17.21;42.19
75359;BME280;64046;51.978;5.934;2023-05-18T08:36:41;102862.75;;;17.22;41.88
75359;BME280;64046;51.978;5.934;2023-05-18T08:39:14;102849.31;;;17.26;41.78
75359;BME280;64046;51.978;5.934;2023-05-18T08:41:56;102857.03;;;17.33;41.84
75359;BME280;64046;51.978;5.934;2023-05-18T08:44:45;102848.69;;;17.42;41.86
75359;BME280;64046;51.978;5.934;2023-05-18T08:47:20;102849.88;;;17.35;42.06
75359;BME280;64046;51.978;5.934;2023-05-18T08:49:57;102852.72;;;17.30;41.69
75359;BME280;64046;51.978;5.934;2023-05-18T08:52:53;102844.19;;;17.22;41.29
75359;BME280;64046;51.978;5.934;2023-05-18T08:55:31;102836.91;;;17.05;41.74
75359;BME280;64046;51.978;5.934;2023-05-18T08:58:03;102840.13;;;16.91;41.67
75359;BME280;64046;51.978;5.934;2023-05-18T09:00:37;102840.84;;;16.94;41.57
75359;BME280;64046;51.978;5.934;2023-05-18T09:03:25;102836.53;;;16.92;41.38
75359;BME280;64046;51.978;5.934;2023-05-18T09:05:56;102836.44;;;16.95;41.06
75359;BME280;64046;51.978;5.934;2023-05-18T09:08:29;102832.63;;;17.02;41.13
75359;BME280;64046;51.978;5.934;2023-05-18T09:11:10;102834.72;;;17.16;40.87
75359;BME280;64046;51.978;5.934;2023-05-18T09:13:43;102818.31;;;17.06;40.97
75359;BME280;64046;51.978;5.934;2023-05-18T09:16:18;102830.84;;;17.03;41.16
75359;BME280;64046;51.978;5.934;2023-05-18T09:18:48;102823.25;;;17.16;41.09
75359;BME280;64046;51.978;5.934;2023-05-18T09:21:21;102821.69;;;17.32;40.89
75359;BME280;64046;51.978;5.934;2023-05-18T09:23:56;102819.13;;;17.30;40.46
75359;BME280;64046;51.978;5.934;2023-05-18T09:26:29;102820.22;;;17.47;40.69
75359;BME280;64046;51.978;5.934;2023-05-18T09:29:02;102817.56;;;17.47;40.33
75359;BME280;64046;51.978;5.934;2023-05-18T09:31:51;102809.09;;;17.59;40.57
75359;BME280;64046;51.978;5.934;2023-05-18T09:34:44;102813.75;;;17.75;39.84
75359;BME280;64046;51.978;5.934;2023-05-18T09:37:24;102804.94;;;17.54;40.34
75359;BME280;64046;51.978;5.934;2023-05-18T09:40:01;102813.94;;;17.50;40.10
75359;BME280;64046;51.978;5.934;2023-05-18T09:42:41;102794.00;;;17.61;40.01
75359;BME280;64046;51.978;5.934;2023-05-18T09:45:19;102808.78;;;17.46;40.17
75359;BME280;64046;51.978;5.934;2023-05-18T09:47:59;102812.13;;;17.50;39.73
75359;BME280;64046;51.978;5.934;2023-05-18T09:50:31;102809.97;;;17.38;40.20
75359;BME280;64046;51.978;5.934;2023-05-18T09:53:05;102797.81;;;17.34;40.00
75359;BME280;64046;51.978;5.934;2023-05-18T09:55:39;102810.13;;;17.35;39.99
75359;BME280;64046;51.978;5.934;2023-05-18T09:58:21;102803.34;;;17.50;39.65
75359;BME280;64046;51.978;5.934;2023-05-18T10:00:59;102810.66;;;17.43;39.97
75359;BME280;64046;51.978;5.934;2023-05-18T10:03:36;102800.69;;;17.27;39.92
75359;BME280;64046;51.978;5.934;2023-05-18T10:06:08;102789.38;;;17.24;40.04
75359;BME280;64046;51.978;5.934;2023-05-18T10:08:46;102796.56;;;17.42;40.11
75359;BME280;64046;51.978;5.934;2023-05-18T10:11:24;102794.63;;;17.25;39.95
75359;BME280;64046;51.978;5.934;2023-05-18T10:13:57;102789.53;;;17.41;40.26
75359;BME280;64046;51.978;5.934;2023-05-18T10:16:39;102788.63;;;17.42;40.00
75359;BME280;64046;51.978;5.934;2023-05-18T10:19:11;102788.00;;;17.36;39.89
75359;BME280;64046;51.978;5.934;2023-05-18T10:21:46;102783.75;;;17.32;40.12
75359;BME280;64046;51.978;5.934;2023-05-18T10:24:24;102794.28;;;17.33;39.93
75359;BME280;64046;51.978;5.934;2023-05-18T10:27:03;102796.75;;;17.38;39.72
75359;BME280;64046;51.978;5.934;2023-05-18T10:29:40;102784.59;;;17.32;40.03
75359;BME280;64046;51.978;5.934;2023-05-18T10:32:11;102779.44;;;17.29;40.04
75359;BME280;64046;51.978;5.934;2023-05-18T10:34:44;102773.28;;;17.49;40.06
75359;BME280;64046;51.978;5.934;2023-05-18T10:37:30;102773.97;;;17.54;39.80
75359;BME280;64046;51.978;5.934;2023-05-18T10:40:05;102779.00;;;17.40;39.89
75359;BME280;64046;51.978;5.934;2023-05-18T10:42:39;102772.09;;;17.36;40.15
75359;BME280;64046;51.978;5.934;2023-05-18T10:45:14;102769.44;;;17.36;40.16
75359;BME280;64046;51.978;5.934;2023-05-18T10:47:51;102776.41;;;17.38;39.99
75359;BME280;64046;51.978;5.934;2023-05-18T10:50:28;102780.41;;;17.49;40.09
75359;BME280;64046;51.978;5.934;2023-05-18T10:52:59;102769.31;;;17.39;39.67
75359;BME280;64046;51.978;5.934;2023-05-18T10:55:33;102773.00;;;17.35;39.96
75359;BME280;64046;51.978;5.934;2023-05-18T10:58:10;102769.53;;;17.55;39.77
75359;BME280;64046;51.978;5.934;2023-05-18T11:00:47;102767.69;;;17.57;39.75
75359;BME280;64046;51.978;5.934;2023-05-18T11:03:19;102764.69;;;17.44;39.99
75359;BME280;64046;51.978;5.934;2023-05-18T11:06:02;102767.28;;;17.45;39.32
75359;BME280;64046;51.978;5.934;2023-05-18T11:08:33;102758.06;;;17.34;39.66
75359;BME280;64046;51.978;5.934;2023-05-18T11:11:22;102765.28;;;17.51;39.67
75359;BME280;64046;51.978;5.934;2023-05-18T11:14:01;102764.69;;;17.64;39.35
75359;BME280;64046;51.978;5.934;2023-05-18T11:16:40;102759.00;;;17.74;39.16
75359;BME280;64046;51.978;5.934;2023-05-18T11:19:13;102750.25;;;17.72;39.41
75359;BME280;64046;51.978;5.934;2023-05-18T11:22:12;102752.28;;;18.06;38.99
75359;BME280;64046;51.978;5.934;2023-05-18T11:24:46;102757.88;;;18.00;38.98
75359;BME280;64046;51.978;5.934;2023-05-18T11:27:20;102757.81;;;17.81;38.91
75359;BME280;64046;51.978;5.934;2023-05-18T11:29:53;102743.41;;;17.66;39.02
75359;BME280;64046;51.978;5.934;2023-05-18T11:32:48;102747.59;;;17.92;38.93
75359;BME280;64046;51.978;5.934;2023-05-18T11:35:30;102747.53;;;17.73;38.87
75359;BME280;64046;51.978;5.934;2023-05-18T11:38:06;102739.56;;;17.73;39.11
75359;BME280;64046;51.978;5.934;2023-05-18T11:40:50;102748.44;;;17.72;39.27
75359;BME280;64046;51.978;5.934;2023-05-18T11:43:23;102749.41;;;17.92;38.94
75359;BME280;64046;51.978;5.934;2023-05-18T11:45:54;102742.97;;;17.97;39.11
75359;BME280;64046;51.978;5.934;2023-05-18T11:48:33;102744.84;;;18.14;38.82
75359;BME280;64046;51.978;5.934;2023-05-18T11:51:06;102743.94;;;17.95;39.11
75359;BME280;64046;51.978;5.934;2023-05-18T11:53:39;102735.25;;;18.12;38.67
75359;BME280;64046;51.978;5.934;2023-05-18T11:56:10;102738.69;;;18.14;38.77
75359;BME280;64046;51.978;5.934;2023-05-18T11:59:15;102741.47;;;18.11;38.68
75359;BME280;64046;51.978;5.934;2023-05-18T12:01:51;102737.19;;;18.08;39.19
75359;BME280;64046;51.978;5.934;2023-05-18T12:04:50;102728.31;;;18.28;38.79
75359;BME280;64046;51.978;5.934;2023-05-18T12:07:21;102725.28;;;18.17;38.86
75359;BME280;64046;51.978;5.934;2023-05-18T12:10:00;102726.94;;;18.39;38.80
75359;BME280;64046;51.978;5.934;2023-05-18T12:12:40;102725.22;;;18.38;38.52
75359;BME280;64046;51.978;5.934;2023-05-18T12:15:11;102720.91;;;18.35;38.29
75359;BME280;64046;51.978;5.934;2023-05-18T12:17:42;102703.91;;;18.39;38.13
75359;BME280;64046;51.978;5.934;2023-05-18T12:20:19;102713.88;;;18.53;38.36
75359;BME280;64046;51.978;5.934;2023-05-18T12:23:03;102707.50;;;18.57;37.96
75359;BME280;64046;51.978;5.934;2023-05-18T12:25:39;102694.78;;;18.45;37.77
75359;BME280;64046;51.978;5.934;2023-05-18T12:28:09;102705.56;;;18.23;38.27
75359;BME280;64046;51.978;5.934;2023-05-18T12:30:41;102694.44;;;18.33;38.42
75359;BME280;64046;51.978;5.934;2023-05-18T12:33:14;102704.97;;;18.54;37.78
75359;BME280;64046;51.978;5.934;2023-05-18T12:35:53;102704.03;;;18.55;38.15
75359;BME280;64046;51.978;5.934;2023-05-18T12:38:32;102698.59;;;18.39;38.02
75359;BME280;64046;51.978;5.934;2023-05-18T12:41:03;102704.81;;;18.38;38.13
75359;BME280;64046;51.978;5.934;2023-05-18T12:43:35;102701.78;;;18.28;38.15
75359;BME280;64046;51.978;5.934;2023-05-18T12:46:05;102703.75;;;18.23;38.42
75359;BME280;64046;51.978;5.934;2023-05-18T12:48:54;102708.06;;;18.45;38.13
75359;BME280;64046;51.978;5.934;2023-05-18T12:51:31;102702.41;;;18.53;38.27
75359;BME280;64046;51.978;5.934;2023-05-18T12:54:03;102713.22;;;18.48;38.17
75359;BME280;64046;51.978;5.934;2023-05-18T12:56:57;102708.75;;;18.67;37.61
75359;BME280;64046;51.978;5.934;2023-05-18T12:59:34;102696.44;;;18.47;37.84
75359;BME280;64046;51.978;5.934;2023-05-18T13:02:11;102694.09;;;18.41;37.24
75359;BME280;64046;51.978;5.934;2023-05-18T13:05:00;102698.94;;;18.50;37.40
75359;BME280;64046;51.978;5.934;2023-05-18T13:07:36;102699.75;;;18.53;37.74
75359;BME280;64046;51.978;5.934;2023-05-18T13:10:14;102691.56;;;18.57;37.42
75359;BME280;64046;51.978;5.934;2023-05-18T13:12:44;102696.78;;;18.59;37.51
75359;BME280;64046;51.978;5.934;2023-05-18T13:15:16;102696.91;;;18.75;37.11
75359;BME280;64046;51.978;5.934;2023-05-18T13:17:54;102691.34;;;18.79;36.66
75359;BME280;64046;51.978;5.934;2023-05-18T13:20:30;102679.41;;;18.71;36.64
75359;BME280;64046;51.978;5.934;2023-05-18T13:23:15;102681.34;;;18.67;36.90
75359;BME280;64046;51.978;5.934;2023-05-18T13:25:49;102683.47;;;18.41;37.50
75359;BME280;64046;51.978;5.934;2023-05-18T13:28:23;102677.56;;;18.54;37.56
75359;BME280;64046;51.978;5.934;2023-05-18T13:30:54;102671.31;;;18.55;37.34
75359;BME280;64046;51.978;5.934;2023-05-18T13:33:29;102671.13;;;18.77;37.28
75359;BME280;64046;51.978;5.934;2023-05-18T13:36:03;102669.09;;;18.64;37.50